createdAt,value
2018-05-31T00:00:31.068Z,10.00
2018-05-31T00:02:59.342Z,9.20
2018-05-31T00:05:27.616Z,9.90
2018-05-31T00:07:55.902Z,9.80
2018-05-31T00:10:24.211Z,10.40
2018-05-31T00:12:52.482Z,10.27
2018-05-31T00:15:20.768Z,9.47
2018-05-31T00:17:49.050Z,10.67
2018-05-31T00:20:17.338Z,10.13
2018-05-31T00:22:45.631Z,10.03
2018-05-31T00:25:13.994Z,9.13
2018-05-31T00:27:42.999Z,10.20
2018-05-31T00:30:11.288Z,10.63
2018-05-31T00:32:39.578Z,10.63
2018-05-31T00:35:07.862Z,11.03
2018-05-31T00:37:36.140Z,9.90
2018-05-31T00:40:04.438Z,10.30
2018-05-31T00:42:33.504Z,10.70
2018-05-31T00:45:01.798Z,10.43
2018-05-31T00:47:30.891Z,10.87
2018-05-31T00:49:59.176Z,10.60
2018-05-31T00:52:28.231Z,9.70
2018-05-31T00:54:56.514Z,10.70
2018-05-31T00:57:24.807Z,11.07
2018-05-31T00:59:53.103Z,10.53
2018-05-31T01:02:21.430Z,10.47
2018-05-31T01:04:49.711Z,10.90
2018-05-31T01:07:18.013Z,10.60
2018-05-31T01:09:46.312Z,10.70
2018-05-31T01:12:14.607Z,10.97
2018-05-31T01:14:42.893Z,10.53
2018-05-31T01:17:11.201Z,10.80
2018-05-31T01:19:39.480Z,10.80
2018-05-31T01:22:07.772Z,10.43
2018-05-31T01:24:36.062Z,11.43
2018-05-31T01:27:04.345Z,11.20
2018-05-31T01:29:32.641Z,10.47
2018-05-31T01:32:01.699Z,10.60
2018-05-31T01:34:29.999Z,10.40
2018-05-31T01:36:59.046Z,11.20
2018-05-31T01:39:27.313Z,10.73
2018-05-31T01:41:55.629Z,10.70
2018-05-31T01:44:23.915Z,11.03
2018-05-31T01:46:52.202Z,10.97
2018-05-31T01:49:21.242Z,11.10
2018-05-31T01:51:49.556Z,11.13
2018-05-31T01:54:17.837Z,11.30
2018-05-31T01:56:46.120Z,11.63
2018-05-31T01:59:14.414Z,11.43
2018-05-31T02:01:43.469Z,11.47
2018-05-31T02:04:11.871Z,11.23
2018-05-31T02:06:40.150Z,11.53
2018-05-31T02:09:09.210Z,11.37
2018-05-31T02:11:37.576Z,10.93
2018-05-31T02:14:05.891Z,11.50
2018-05-31T02:16:34.171Z,11.87
2018-05-31T02:19:02.478Z,11.57
2018-05-31T02:21:30.766Z,11.53
2018-05-31T02:23:59.054Z,10.60
2018-05-31T02:26:27.339Z,11.43
2018-05-31T02:28:55.655Z,11.13
2018-05-31T02:31:23.930Z,10.67
2018-05-31T02:33:52.228Z,10.80
2018-05-31T02:36:20.531Z,11.33
2018-05-31T02:38:48.822Z,10.87
2018-05-31T02:41:17.092Z,11.30
2018-05-31T02:43:45.416Z,11.17
2018-05-31T02:46:13.711Z,11.30
2018-05-31T02:48:41.997Z,10.90
2018-05-31T02:51:11.042Z,10.67
2018-05-31T02:53:39.546Z,11.60
2018-05-31T02:56:07.855Z,10.73
2018-05-31T02:58:36.168Z,11.07
2018-05-31T03:01:04.463Z,10.67
2018-05-31T03:03:32.743Z,11.07
2018-05-31T03:06:01.053Z,11.67
2018-05-31T03:08:29.425Z,11.23
2018-05-31T03:10:57.725Z,10.20
2018-05-31T03:13:26.228Z,11.00
2018-05-31T03:15:54.490Z,11.30
2018-05-31T03:18:22.810Z,11.17
2018-05-31T03:20:51.109Z,11.03
2018-05-31T03:23:19.397Z,10.40
2018-05-31T03:25:48.464Z,10.70
2018-05-31T03:28:16.748Z,10.90
2018-05-31T03:30:45.068Z,10.90
2018-05-31T03:33:14.128Z,10.80
2018-05-31T03:35:42.413Z,10.37
2018-05-31T03:38:10.710Z,10.70
2018-05-31T03:40:38.978Z,11.00
2018-05-31T03:43:07.344Z,12.40
2018-05-31T03:45:35.651Z,11.73
2018-05-31T03:48:04.700Z,12.13
2018-05-31T03:50:33.008Z,11.93
2018-05-31T03:53:01.294Z,12.43
2018-05-31T03:55:29.586Z,13.07
2018-05-31T03:57:57.879Z,12.37
2018-05-31T04:00:26.159Z,12.60
2018-05-31T04:02:54.466Z,12.27
2018-05-31T04:05:22.746Z,12.43
2018-05-31T04:07:51.054Z,13.37
2018-05-31T04:10:19.347Z,12.63
2018-05-31T04:12:47.659Z,14.53
2018-05-31T04:15:15.949Z,13.60
2018-05-31T04:17:45.531Z,13.20
2018-05-31T04:20:15.123Z,14.33
2018-05-31T04:22:44.890Z,13.67
2018-05-31T04:25:16.725Z,14.23
2018-05-31T04:27:47.340Z,15.43
2018-05-31T04:30:15.613Z,15.10
2018-05-31T04:32:44.036Z,14.50
2018-05-31T04:35:14.992Z,14.10
2018-05-31T04:37:46.384Z,14.00
2018-05-31T04:40:14.695Z,14.53
2018-05-31T04:42:45.036Z,15.10
2018-05-31T04:45:13.413Z,15.40
2018-05-31T04:47:41.703Z,15.93
2018-05-31T04:50:10.015Z,16.03
2018-05-31T04:52:38.329Z,16.13
2018-05-31T04:55:06.633Z,15.37
2018-05-31T04:57:35.675Z,15.60
2018-05-31T05:00:03.956Z,16.70
2018-05-31T05:02:32.249Z,16.50
2018-05-31T05:05:00.543Z,23.73
2018-05-31T05:07:28.852Z,16.80
2018-05-31T05:09:57.141Z,17.13
2018-05-31T05:12:25.412Z,18.10
2018-05-31T05:14:53.712Z,22.30
2018-05-31T05:17:22.148Z,18.40
2018-05-31T05:19:50.428Z,17.17
2018-05-31T05:22:18.788Z,16.93
2018-05-31T05:24:47.062Z,17.17
2018-05-31T05:27:15.360Z,16.70
2018-05-31T05:29:43.646Z,17.93
2018-05-31T05:32:12.000Z,18.27
2018-05-31T05:34:40.370Z,17.77
2018-05-31T05:37:08.660Z,16.90
2018-05-31T05:39:37.704Z,17.37
2018-05-31T05:42:05.996Z,17.10
2018-05-31T05:44:34.274Z,17.03
2018-05-31T05:47:02.575Z,17.10
2018-05-31T05:49:30.866Z,17.53
2018-05-31T05:51:59.915Z,16.43
2018-05-31T05:54:29.298Z,16.93
2018-05-31T05:56:57.624Z,17.10
2018-05-31T05:59:25.900Z,17.20
2018-05-31T06:01:54.313Z,16.83
2018-05-31T06:04:22.578Z,17.37
2018-05-31T06:06:51.022Z,15.90
2018-05-31T06:09:19.317Z,17.53
2018-05-31T06:11:47.587Z,16.27
2018-05-31T06:14:15.883Z,17.50
2018-05-31T06:16:44.183Z,19.77
2018-05-31T06:19:12.470Z,19.07
2018-05-31T06:21:40.779Z,18.73
2018-05-31T06:24:09.067Z,19.13
2018-05-31T06:26:37.359Z,17.17
2018-05-31T06:29:05.644Z,17.13
2018-05-31T06:31:33.955Z,18.63
2018-05-31T06:34:02.256Z,18.00
2018-05-31T06:36:30.535Z,16.93
2018-05-31T06:38:58.839Z,16.90
2018-05-31T06:41:27.158Z,17.40
2018-05-31T06:43:55.441Z,18.07
2018-05-31T06:46:23.735Z,16.90
2018-05-31T06:48:52.052Z,17.03
2018-05-31T06:51:20.453Z,16.30
2018-05-31T06:53:48.718Z,16.63
2018-05-31T06:56:17.970Z,16.83
2018-05-31T06:58:46.269Z,17.60
2018-05-31T07:01:14.685Z,16.73
2018-05-31T07:03:42.959Z,16.00
2018-05-31T07:06:11.254Z,17.00
2018-05-31T07:08:39.530Z,15.70
2018-05-31T07:11:08.207Z,15.37
2018-05-31T07:13:36.521Z,14.83
2018-05-31T07:16:04.798Z,14.70
2018-05-31T07:18:33.081Z,14.30
2018-05-31T07:21:01.387Z,14.80
2018-05-31T07:23:29.664Z,13.17
2018-05-31T07:25:58.211Z,13.30
2018-05-31T07:28:26.530Z,13.27
2018-05-31T07:30:54.796Z,12.63
2018-05-31T07:33:23.069Z,13.50
2018-05-31T07:35:51.361Z,12.70
2018-05-31T07:38:19.666Z,13.60
2018-05-31T07:40:47.967Z,13.73
2018-05-31T07:43:16.288Z,14.07
2018-05-31T07:45:44.687Z,12.50
2018-05-31T07:48:12.956Z,13.70
2018-05-31T07:50:41.260Z,12.50
2018-05-31T07:53:09.553Z,12.97
2018-05-31T07:55:37.825Z,11.60
2018-05-31T07:58:06.144Z,12.50
2018-05-31T08:00:34.422Z,12.73
2018-05-31T08:03:02.718Z,12.40
2018-05-31T08:05:31.805Z,12.10
2018-05-31T08:08:00.185Z,13.07
2018-05-31T08:10:28.528Z,12.53
2018-05-31T08:12:56.830Z,12.40
2018-05-31T08:15:25.326Z,12.20
2018-05-31T08:17:53.635Z,12.43
2018-05-31T08:20:22.683Z,11.77
2018-05-31T08:22:50.978Z,10.90
2018-05-31T08:25:19.255Z,11.63
2018-05-31T08:27:47.598Z,10.40
2018-05-31T08:30:15.920Z,10.30
2018-05-31T08:32:44.169Z,11.00
2018-05-31T08:35:12.480Z,10.50
2018-05-31T08:37:40.755Z,10.07
2018-05-31T08:40:09.147Z,10.67
2018-05-31T08:42:37.432Z,11.87
2018-05-31T08:45:05.734Z,11.43
2018-05-31T08:47:34.171Z,11.07
2018-05-31T08:50:03.256Z,11.40
2018-05-31T08:52:31.635Z,10.80
2018-05-31T08:54:59.979Z,10.97
2018-05-31T08:57:28.302Z,11.20
2018-05-31T08:59:56.786Z,11.50
2018-05-31T09:02:25.056Z,10.80
2018-05-31T09:04:54.129Z,11.27
2018-05-31T09:07:22.449Z,10.53
2018-05-31T09:09:50.733Z,10.17
2018-05-31T09:12:19.009Z,10.77
2018-05-31T09:14:47.306Z,10.67
2018-05-31T09:17:15.643Z,11.33
2018-05-31T09:19:44.690Z,10.57
2018-05-31T09:22:12.978Z,10.17
2018-05-31T09:24:41.265Z,10.67
2018-05-31T09:27:09.559Z,10.43
2018-05-31T09:29:37.837Z,10.50
2018-05-31T09:32:06.168Z,10.60
2018-05-31T09:34:34.467Z,10.40
2018-05-31T09:37:03.013Z,10.43
2018-05-31T09:39:31.419Z,10.57
2018-05-31T09:41:59.743Z,9.73
2018-05-31T09:44:28.792Z,9.57
2018-05-31T09:46:57.072Z,9.93
2018-05-31T09:49:25.347Z,9.87
2018-05-31T09:51:53.627Z,10.03
2018-05-31T09:54:21.909Z,10.03
2018-05-31T09:56:50.447Z,10.03
2018-05-31T09:59:18.740Z,10.53
2018-05-31T10:01:47.023Z,9.90
2018-05-31T10:04:16.100Z,9.47
2018-05-31T10:06:44.370Z,9.80
2018-05-31T10:09:12.648Z,9.87
2018-05-31T10:11:40.940Z,10.20
2018-05-31T10:14:09.268Z,9.93
2018-05-31T10:16:37.543Z,9.13
2018-05-31T10:19:05.850Z,10.17
2018-05-31T10:21:34.137Z,10.33
2018-05-31T10:24:02.590Z,10.00
2018-05-31T10:26:30.876Z,10.27
2018-05-31T10:28:59.364Z,9.63
2018-05-31T10:31:27.656Z,9.93
2018-05-31T10:33:55.948Z,9.93
2018-05-31T10:36:24.233Z,10.30
2018-05-31T10:38:52.510Z,9.67
2018-05-31T10:41:20.808Z,10.70
2018-05-31T10:43:49.088Z,9.60
2018-05-31T10:46:17.468Z,9.47
2018-05-31T10:48:45.750Z,9.60
2018-05-31T10:51:14.025Z,10.47
2018-05-31T10:53:42.520Z,9.80
2018-05-31T10:56:10.798Z,9.37
2018-05-31T10:58:39.961Z,9.37
2018-05-31T11:01:08.243Z,9.57
2018-05-31T11:03:36.537Z,9.33
2018-05-31T11:06:04.878Z,9.20
2018-05-31T11:08:33.216Z,9.23
2018-05-31T11:11:01.456Z,9.70
2018-05-31T11:13:29.757Z,9.90
2018-05-31T11:15:58.052Z,9.70
2018-05-31T11:18:26.342Z,9.57
2018-05-31T11:20:55.376Z,10.03
2018-05-31T11:23:23.690Z,9.93
2018-05-31T11:25:52.362Z,9.83
2018-05-31T11:28:20.644Z,9.37
2018-05-31T11:30:48.942Z,9.40
2018-05-31T11:33:17.214Z,8.93
2018-05-31T11:35:45.529Z,9.80
2018-05-31T11:38:13.835Z,9.10
2018-05-31T11:40:42.108Z,10.17
2018-05-31T11:43:10.384Z,8.73
2018-05-31T11:45:38.789Z,10.10
2018-05-31T11:48:07.105Z,9.97
2018-05-31T11:50:35.849Z,9.23
2018-05-31T11:53:04.133Z,9.83
2018-05-31T11:55:32.412Z,9.83
2018-05-31T11:58:00.702Z,8.60
2018-05-31T12:00:29.048Z,9.47
2018-05-31T12:02:57.430Z,8.97
2018-05-31T12:05:25.704Z,8.80
2018-05-31T12:07:54.189Z,8.97
2018-05-31T12:10:22.494Z,9.53
2018-05-31T12:12:51.539Z,9.37
2018-05-31T12:15:19.833Z,8.77
2018-05-31T12:17:48.102Z,9.23
2018-05-31T12:20:16.382Z,9.60
2018-05-31T12:22:44.667Z,8.63
2018-05-31T12:25:12.931Z,9.03
2018-05-31T12:27:41.314Z,8.67
2018-05-31T12:30:09.607Z,8.80
2018-05-31T12:32:37.883Z,8.37
2018-05-31T12:35:06.385Z,9.10
2018-05-31T12:37:35.422Z,9.03
2018-05-31T12:40:03.706Z,9.00
2018-05-31T12:42:32.390Z,8.93
2018-05-31T12:45:00.661Z,8.70
2018-05-31T12:47:28.935Z,8.20
2018-05-31T12:49:57.227Z,9.00
2018-05-31T12:52:25.540Z,8.73
2018-05-31T12:54:53.807Z,9.60
2018-05-31T12:57:22.120Z,8.40
2018-05-31T13:09:30.442Z,9.17
2018-05-31T13:11:59.626Z,8.70
2018-05-31T13:14:27.901Z,8.50
2018-05-31T13:16:56.224Z,8.40
2018-05-31T13:19:24.578Z,8.73
2018-05-31T13:21:52.968Z,8.90
2018-05-31T13:24:21.262Z,8.43
2018-05-31T13:26:49.696Z,10.00
2018-05-31T13:29:17.998Z,9.03
2018-05-31T13:31:46.254Z,8.80
2018-05-31T13:34:14.550Z,8.30
2018-05-31T13:36:42.846Z,8.37
2018-05-31T13:39:11.115Z,8.80
2018-05-31T13:41:39.402Z,8.73
2018-05-31T13:44:07.669Z,8.27
2018-05-31T13:46:35.933Z,8.50
2018-05-31T13:49:04.355Z,8.70
2018-05-31T13:51:32.645Z,8.33
2018-05-31T13:54:00.933Z,9.00
2018-05-31T13:56:29.219Z,8.50
2018-05-31T13:58:57.515Z,8.50
2018-05-31T14:01:25.797Z,8.50
2018-05-31T14:03:54.088Z,8.73
2018-05-31T14:06:22.572Z,8.30
2018-05-31T14:08:50.854Z,8.13
2018-05-31T14:11:19.132Z,8.23
2018-05-31T14:13:47.410Z,8.40
2018-05-31T14:16:15.716Z,8.10
2018-05-31T14:18:43.988Z,8.17
2018-05-31T14:21:12.260Z,8.20
2018-05-31T14:23:40.559Z,7.83
2018-05-31T14:26:08.988Z,8.00
2018-05-31T14:28:37.286Z,8.80
2018-05-31T14:31:05.615Z,8.30
2018-05-31T14:33:33.905Z,8.27
2018-05-31T14:36:02.209Z,8.40
2018-05-31T14:38:30.562Z,8.00
2018-05-31T14:40:58.849Z,8.50
2018-05-31T14:43:27.122Z,7.70
2018-05-31T14:45:55.416Z,8.07
2018-05-31T14:48:23.678Z,7.80
2018-05-31T14:50:52.184Z,8.17
2018-05-31T14:53:20.457Z,8.53
2018-05-31T14:55:49.511Z,8.17
2018-05-31T14:58:17.778Z,7.43
2018-05-31T15:00:46.047Z,8.47
2018-05-31T15:03:14.342Z,7.90
2018-05-31T15:05:42.755Z,7.60
2018-05-31T15:08:11.035Z,7.87
2018-05-31T15:10:39.308Z,7.77
2018-05-31T15:13:07.597Z,7.77
2018-05-31T15:15:35.899Z,7.43
2018-05-31T15:18:04.327Z,8.00
2018-05-31T15:20:32.599Z,7.93
2018-05-31T15:23:00.891Z,7.60
2018-05-31T15:25:29.164Z,7.43
2018-05-31T15:27:57.451Z,7.40
2018-05-31T15:30:25.933Z,7.20
2018-05-31T15:32:54.206Z,7.47
2018-05-31T15:35:22.490Z,7.50
2018-05-31T15:37:50.763Z,7.40
2018-05-31T15:40:19.044Z,7.17
2018-05-31T15:42:47.706Z,7.70
2018-05-31T15:45:15.991Z,7.33
2018-05-31T15:47:44.271Z,7.77
2018-05-31T15:50:12.562Z,7.37
2018-05-31T15:52:40.829Z,7.13
2018-05-31T15:55:09.118Z,7.17
2018-05-31T15:57:37.386Z,7.20
2018-05-31T16:00:05.664Z,7.40
2018-05-31T16:02:33.952Z,7.77
2018-05-31T16:05:02.244Z,7.43
2018-05-31T16:07:31.303Z,6.90
2018-05-31T16:09:59.566Z,7.30
2018-05-31T16:12:27.836Z,6.83
2018-05-31T16:14:56.122Z,7.27
2018-05-31T16:17:24.404Z,7.40
2018-05-31T16:19:52.671Z,7.07
2018-05-31T16:22:20.961Z,6.73
2018-05-31T16:24:49.279Z,7.53
2018-05-31T16:27:17.527Z,6.70
2018-05-31T16:29:45.798Z,6.93
2018-05-31T16:32:14.102Z,7.07
2018-05-31T16:34:43.160Z,6.73
2018-05-31T16:37:11.414Z,7.20
2018-05-31T16:39:39.680Z,6.90
2018-05-31T16:42:07.957Z,6.60
2018-05-31T16:44:36.228Z,7.40
2018-05-31T16:47:04.491Z,6.70
2018-05-31T16:49:32.764Z,7.13
2018-05-31T16:52:01.794Z,7.37
2018-05-31T16:54:30.061Z,7.33
2018-05-31T16:56:58.525Z,7.23
2018-05-31T16:59:30.102Z,8.77
2018-05-31T17:02:00.930Z,9.00
2018-05-31T17:04:35.510Z,8.30
2018-05-31T17:07:04.206Z,8.47
2018-05-31T17:09:32.467Z,7.93
2018-05-31T17:12:01.228Z,7.63
2018-05-31T17:14:33.645Z,7.77
2018-05-31T17:17:02.230Z,7.53
2018-05-31T17:19:32.091Z,7.80
2018-05-31T17:22:01.447Z,7.30
2018-05-31T17:24:30.490Z,7.60
2018-05-31T17:26:58.763Z,7.23
2018-05-31T17:29:38.966Z,8.17
2018-05-31T17:32:16.116Z,8.83
2018-05-31T17:34:44.529Z,8.90
2018-05-31T17:37:14.428Z,8.30
2018-05-31T17:39:46.051Z,9.90
2018-05-31T17:42:14.326Z,11.07
2018-05-31T17:44:42.619Z,12.73
2018-05-31T17:47:11.054Z,12.93
2018-05-31T17:49:39.409Z,12.83
2018-05-31T17:52:07.700Z,12.90
2018-05-31T17:54:36.147Z,12.13
2018-05-31T17:57:04.415Z,12.33
2018-05-31T18:14:30.875Z,12.07
2018-05-31T18:16:59.166Z,12.67
2018-05-31T18:19:28.210Z,12.20
2018-05-31T18:21:56.486Z,11.83
2018-05-31T18:24:24.787Z,12.00
2018-05-31T18:26:53.080Z,11.80
2018-05-31T18:29:21.362Z,11.60
2018-05-31T18:31:49.634Z,12.03
2018-05-31T18:34:17.920Z,11.67
2018-05-31T18:36:46.216Z,11.87
2018-05-31T18:39:14.530Z,11.27
2018-05-31T18:41:42.810Z,11.63
2018-05-31T18:44:11.101Z,12.10
2018-05-31T18:46:39.434Z,11.80
2018-05-31T18:49:08.454Z,11.30
2018-05-31T18:51:36.753Z,11.07
2018-05-31T18:54:05.059Z,11.60
2018-05-31T18:56:34.227Z,11.00
2018-05-31T18:59:02.525Z,10.87
2018-05-31T19:01:30.811Z,10.37
2018-05-31T19:03:59.087Z,10.27
2018-05-31T19:06:28.130Z,10.30
2018-05-31T19:08:56.546Z,10.27
2018-05-31T19:11:24.819Z,10.57
2018-05-31T19:13:58.020Z,10.00
2018-05-31T19:16:26.298Z,9.40
2018-05-31T19:19:00.176Z,10.03
2018-05-31T19:21:28.448Z,10.27
2018-05-31T19:23:56.862Z,10.33
2018-05-31T19:26:25.171Z,11.33
2018-05-31T19:28:53.451Z,9.97
2018-05-31T19:31:21.746Z,9.63
2018-05-31T19:33:50.192Z,10.03
2018-05-31T19:36:24.162Z,9.87
2018-05-31T19:38:53.806Z,9.90
2018-05-31T19:41:22.896Z,10.30
2018-05-31T19:43:56.912Z,10.47
2018-05-31T19:46:25.178Z,9.67
2018-05-31T19:48:53.475Z,9.47
2018-05-31T19:51:28.196Z,9.83
2018-05-31T19:53:57.241Z,9.50
2018-05-31T19:56:25.522Z,9.87
2018-05-31T19:58:59.481Z,9.70
2018-05-31T20:01:35.041Z,9.53
2018-05-31T20:04:04.084Z,9.20
2018-05-31T20:06:32.367Z,9.37
2018-05-31T20:09:00.910Z,9.60
2018-05-31T20:11:29.135Z,9.77
2018-05-31T20:13:57.434Z,9.60
2018-05-31T20:16:25.723Z,9.37
2018-05-31T20:18:54.802Z,9.30
2018-05-31T20:21:23.060Z,9.90
2018-05-31T20:23:51.435Z,9.67
2018-05-31T20:26:19.763Z,9.50
2018-05-31T20:28:48.054Z,9.37
2018-05-31T20:31:18.077Z,9.53
2018-05-31T20:33:46.356Z,9.37
2018-05-31T20:36:15.453Z,9.63
2018-05-31T20:38:43.753Z,8.90
2018-05-31T20:41:12.022Z,9.27
2018-05-31T20:43:40.304Z,9.67
2018-05-31T20:46:08.573Z,8.90
2018-05-31T20:48:37.068Z,9.27
2018-05-31T20:51:05.332Z,8.83
2018-05-31T20:53:33.601Z,9.17
2018-05-31T20:56:01.904Z,9.10
2018-05-31T20:58:30.180Z,9.27
2018-05-31T21:00:58.956Z,8.57
2018-05-31T21:03:27.227Z,9.73
2018-05-31T21:05:55.711Z,8.67
2018-05-31T21:08:23.982Z,8.77
2018-05-31T21:10:52.258Z,9.07
2018-05-31T21:13:20.553Z,9.60
2018-05-31T21:15:48.831Z,10.60
2018-05-31T21:18:17.102Z,8.97
2018-05-31T21:20:45.393Z,9.63
2018-05-31T21:23:13.669Z,9.13
2018-05-31T21:25:41.947Z,9.33
2018-05-31T21:28:10.249Z,9.87
2018-05-31T21:30:38.510Z,8.97
2018-05-31T21:33:07.553Z,9.80
2018-05-31T21:35:35.873Z,9.20
2018-05-31T21:38:04.097Z,9.33
2018-05-31T21:40:32.375Z,9.40
2018-05-31T21:43:00.698Z,9.57
2018-05-31T21:45:28.971Z,8.87
2018-05-31T21:47:57.262Z,8.90
2018-05-31T21:50:25.560Z,9.63
2018-05-31T21:52:54.619Z,9.17
2018-05-31T21:55:23.673Z,8.97
2018-05-31T21:57:51.942Z,8.50
2018-05-31T22:00:41.525Z,8.87
2018-05-31T22:03:09.800Z,9.37
2018-05-31T22:05:38.118Z,9.13
2018-05-31T22:08:06.382Z,8.70
2018-05-31T22:10:34.634Z,9.07
2018-05-31T22:13:03.147Z,9.20
2018-05-31T22:15:31.802Z,8.53
2018-05-31T22:18:00.083Z,9.00
2018-05-31T22:20:28.355Z,8.83
2018-05-31T22:22:56.783Z,8.93
2018-05-31T22:25:25.051Z,9.37
2018-05-31T22:27:53.464Z,8.30
2018-05-31T22:30:22.506Z,8.40
2018-05-31T22:32:50.787Z,8.63
2018-05-31T22:35:19.073Z,8.10
2018-05-31T22:37:47.347Z,8.30
2018-05-31T22:40:15.619Z,8.60
2018-05-31T22:42:43.921Z,8.50
2018-05-31T22:45:12.149Z,8.60
2018-05-31T22:47:40.438Z,7.83
2018-05-31T22:50:08.708Z,8.23
2018-05-31T22:52:37.219Z,7.73
2018-05-31T22:55:05.502Z,8.33
2018-05-31T22:57:33.914Z,7.97
2018-05-31T23:00:02.195Z,8.03
2018-05-31T23:02:30.267Z,8.20
2018-05-31T23:04:58.543Z,7.53
2018-05-31T23:07:26.840Z,8.17
2018-05-31T23:09:55.112Z,8.20
2018-05-31T23:12:23.388Z,8.03
2018-05-31T23:14:51.700Z,7.87
2018-05-31T23:17:19.963Z,7.97
2018-05-31T23:19:48.236Z,7.73
2018-05-31T23:22:16.519Z,7.87
2018-05-31T23:24:44.911Z,7.73
2018-05-31T23:27:13.202Z,7.97
2018-05-31T23:29:41.462Z,7.27
2018-05-31T23:32:09.732Z,7.93
2018-05-31T23:34:38.013Z,7.30
2018-05-31T23:37:06.326Z,7.63
2018-05-31T23:39:34.597Z,7.63
2018-05-31T23:42:02.866Z,7.47
2018-05-31T23:44:31.141Z,6.93
2018-05-31T23:46:59.431Z,8.03
2018-05-31T23:49:27.715Z,7.37
2018-05-31T23:51:56.752Z,7.70
2018-05-31T23:54:25.811Z,7.10
2018-05-31T23:56:54.070Z,7.53
2018-05-31T23:59:22.482Z,7.93
